createdAt,value
2017-12-04T00:01:04.715Z,4.07
2017-12-04T00:03:32.183Z,3.27
2017-12-04T00:05:59.651Z,3.17
2017-12-04T00:08:27.128Z,3.83
2017-12-04T00:10:54.608Z,4.30
2017-12-04T00:13:22.083Z,3.93
2017-12-04T00:15:50.414Z,4.43
2017-12-04T00:18:18.651Z,4.10
2017-12-04T00:20:46.102Z,5.30
2017-12-04T00:23:13.567Z,4.20
2017-12-04T00:25:41.024Z,5.10
2017-12-04T00:28:08.999Z,5.37
2017-12-04T00:30:36.472Z,5.37
2017-12-04T00:33:04.714Z,5.50
2017-12-04T00:35:32.940Z,4.53
2017-12-04T00:38:00.422Z,4.50
2017-12-04T00:40:27.879Z,4.07
2017-12-04T00:42:55.346Z,4.20
2017-12-04T00:45:22.820Z,5.03
2017-12-04T00:47:50.290Z,4.83
2017-12-04T00:50:17.778Z,4.23
2017-12-04T00:52:45.363Z,5.57
2017-12-04T00:55:12.830Z,4.60
2017-12-04T00:57:40.290Z,4.10
2017-12-04T01:00:07.758Z,4.50
2017-12-04T01:02:35.220Z,4.43
2017-12-04T01:05:02.699Z,5.00
2017-12-04T01:07:30.203Z,4.23
2017-12-04T01:09:57.670Z,4.17
2017-12-04T01:12:25.140Z,5.70
2017-12-04T01:14:52.608Z,4.90
2017-12-04T01:17:20.069Z,7.00
2017-12-04T01:19:47.539Z,4.83
2017-12-04T01:22:15.012Z,5.47
2017-12-04T01:24:43.239Z,4.50
2017-12-04T01:27:10.691Z,5.80
2017-12-04T01:29:38.191Z,4.90
2017-12-04T01:32:06.435Z,4.60
2017-12-04T01:34:33.912Z,4.80
2017-12-04T01:37:01.367Z,5.57
2017-12-04T01:39:28.843Z,5.47
2017-12-04T01:41:57.088Z,4.03
2017-12-04T01:44:24.534Z,5.13
2017-12-04T01:46:52.770Z,4.57
2017-12-04T01:49:20.231Z,4.93
2017-12-04T01:51:47.707Z,4.90
2017-12-04T01:54:15.170Z,4.57
2017-12-04T01:56:42.637Z,7.80
2017-12-04T01:59:10.107Z,4.40
2017-12-04T02:01:37.586Z,5.53
2017-12-04T02:04:05.828Z,5.70
2017-12-04T02:06:33.299Z,4.67
2017-12-04T02:09:00.767Z,5.90
2017-12-04T02:11:28.247Z,5.63
2017-12-04T02:13:56.484Z,6.10
2017-12-04T02:16:23.965Z,5.40
2017-12-04T02:18:52.223Z,5.70
2017-12-04T02:21:19.694Z,5.97
2017-12-04T02:23:47.935Z,4.60
2017-12-04T02:26:16.179Z,5.03
2017-12-04T02:28:43.651Z,4.80
2017-12-04T02:31:11.114Z,5.40
2017-12-04T02:33:38.613Z,5.93
2017-12-04T02:36:06.068Z,5.17
2017-12-04T02:38:33.516Z,6.00
2017-12-04T02:41:00.987Z,6.13
2017-12-04T02:43:29.219Z,5.63
2017-12-04T02:45:56.691Z,5.60
2017-12-04T02:48:24.816Z,4.97
2017-12-04T02:50:52.291Z,6.10
2017-12-04T02:53:19.779Z,8.57
2017-12-04T02:55:48.075Z,5.57
2017-12-04T02:58:15.539Z,5.70
2017-12-04T03:00:43.763Z,5.77
2017-12-04T03:03:11.304Z,4.90
2017-12-04T03:05:38.742Z,5.60
2017-12-04T03:08:06.324Z,5.53
2017-12-04T03:10:33.783Z,5.80
2017-12-04T03:13:01.248Z,6.23
2017-12-04T03:15:28.727Z,6.07
2017-12-04T03:17:56.187Z,6.57
2017-12-04T03:20:23.658Z,4.97
2017-12-04T03:22:51.144Z,5.53
2017-12-04T03:25:18.655Z,4.43
2017-12-04T03:27:46.131Z,6.17
2017-12-04T03:30:13.588Z,5.17
2017-12-04T03:32:41.055Z,4.93
2017-12-04T03:35:09.278Z,5.30
2017-12-04T03:37:36.879Z,5.17
2017-12-04T03:40:04.344Z,7.00
2017-12-04T03:42:32.566Z,4.73
2017-12-04T03:45:00.047Z,6.40
2017-12-04T03:47:28.104Z,4.40
2017-12-04T03:49:55.562Z,5.30
2017-12-04T03:52:23.022Z,4.33
2017-12-04T03:54:51.387Z,5.50
2017-12-04T03:57:18.851Z,5.60
2017-12-04T03:59:46.327Z,4.37
2017-12-04T04:02:13.807Z,5.63
2017-12-04T04:04:42.032Z,5.10
2017-12-04T04:07:09.491Z,7.40
2017-12-04T04:09:36.963Z,5.43
2017-12-04T04:12:04.423Z,5.80
2017-12-04T04:14:31.923Z,5.40
2017-12-04T04:17:00.166Z,8.20
2017-12-04T04:19:27.653Z,5.77
2017-12-04T04:21:55.887Z,5.90
2017-12-04T04:24:24.275Z,5.33
2017-12-04T04:26:51.752Z,4.43
2017-12-04T04:29:19.983Z,5.40
2017-12-04T04:31:47.459Z,7.40
2017-12-04T04:34:14.935Z,5.60
2017-12-04T04:36:42.404Z,5.10
2017-12-04T04:39:10.635Z,5.97
2017-12-04T04:41:38.102Z,5.47
2017-12-04T04:44:05.572Z,4.70
2017-12-04T04:46:33.031Z,5.00
2017-12-04T04:49:00.506Z,5.10
2017-12-04T04:51:28.743Z,5.83
2017-12-04T04:53:56.210Z,5.43
2017-12-04T04:56:23.659Z,4.10
2017-12-04T04:58:51.131Z,4.97
2017-12-04T05:01:19.463Z,4.30
2017-12-04T05:03:46.931Z,5.80
2017-12-04T05:06:14.407Z,5.23
2017-12-04T05:08:41.908Z,4.50
2017-12-04T05:11:10.139Z,4.77
2017-12-04T05:13:37.640Z,5.20
2017-12-04T05:16:05.890Z,5.57
2017-12-04T05:18:33.715Z,5.23
2017-12-04T05:21:01.180Z,4.37
2017-12-04T05:23:28.664Z,4.50
2017-12-04T05:25:56.139Z,4.90
2017-12-04T05:28:24.427Z,6.07
2017-12-04T05:30:52.662Z,5.13
2017-12-04T05:33:20.195Z,4.90
2017-12-04T05:35:47.679Z,5.30
2017-12-04T05:38:15.146Z,4.77
2017-12-04T05:40:42.618Z,4.53
2017-12-04T05:43:10.867Z,4.30
2017-12-04T05:45:38.350Z,5.20
2017-12-04T05:48:06.596Z,4.90
2017-12-04T05:50:34.075Z,6.53
2017-12-04T05:53:01.539Z,5.40
2017-12-04T05:55:29.818Z,5.27
2017-12-04T05:57:58.049Z,5.13
2017-12-04T06:00:25.505Z,6.43
2017-12-04T06:02:52.985Z,5.70
2017-12-04T06:05:20.971Z,5.97
2017-12-04T06:07:49.200Z,5.13
2017-12-04T06:10:16.671Z,5.70
2017-12-04T06:12:44.131Z,4.47
2017-12-04T06:15:11.616Z,5.43
2017-12-04T06:17:39.851Z,4.93
2017-12-04T06:20:07.312Z,5.00
2017-12-04T06:22:34.780Z,5.30
2017-12-04T06:25:02.252Z,4.50
2017-12-04T06:27:29.911Z,6.57
2017-12-04T06:29:57.372Z,4.90
2017-12-04T06:32:24.852Z,5.20
2017-12-04T06:34:53.105Z,5.57
2017-12-04T06:37:20.565Z,4.60
2017-12-04T06:39:48.043Z,5.10
2017-12-04T06:42:15.527Z,6.10
2017-12-04T06:44:42.979Z,5.43
2017-12-04T06:47:10.454Z,7.17
2017-12-04T06:49:38.679Z,4.60
2017-12-04T06:52:06.904Z,5.73
2017-12-04T06:54:34.375Z,7.70
2017-12-04T06:57:01.863Z,10.10
2017-12-04T06:59:30.100Z,8.27
2017-12-04T07:01:57.599Z,7.87
2017-12-04T07:04:25.826Z,5.70
2017-12-04T07:06:53.290Z,5.30
2017-12-04T07:09:20.772Z,8.13
2017-12-04T07:11:48.245Z,6.10
2017-12-04T07:14:16.475Z,6.10
2017-12-04T07:16:43.934Z,4.93
2017-12-04T07:19:11.387Z,5.60
2017-12-04T07:21:38.929Z,4.97
2017-12-04T07:24:06.383Z,5.40
2017-12-04T07:26:33.851Z,4.60
2017-12-04T07:29:01.323Z,4.50
2017-12-04T07:31:28.787Z,4.27
2017-12-04T07:33:56.280Z,4.57
2017-12-04T07:36:24.499Z,5.37
2017-12-04T07:38:52.720Z,4.23
2017-12-04T07:41:20.957Z,4.47
2017-12-04T07:43:48.422Z,4.97
2017-12-04T07:46:15.862Z,4.70
2017-12-04T07:48:43.335Z,4.47
2017-12-04T07:51:10.800Z,4.50
2017-12-04T07:53:38.271Z,4.77
2017-12-04T07:56:06.507Z,5.80
2017-12-04T07:58:34.870Z,4.80
2017-12-04T08:01:02.405Z,4.03
2017-12-04T08:03:29.879Z,4.70
2017-12-04T08:05:57.343Z,4.60
2017-12-04T08:08:24.850Z,5.80
2017-12-04T08:10:52.298Z,5.70
2017-12-04T08:13:19.751Z,4.63
2017-12-04T08:15:47.226Z,4.57
2017-12-04T08:18:15.453Z,4.40
2017-12-04T08:20:42.923Z,5.13
2017-12-04T08:23:10.391Z,5.00
2017-12-04T08:25:37.884Z,6.53
2017-12-04T08:28:06.126Z,5.57
2017-12-04T08:30:33.583Z,4.10
2017-12-04T08:33:01.052Z,5.20
2017-12-04T08:35:29.324Z,3.93
2017-12-04T08:37:56.790Z,5.17
2017-12-04T08:40:25.027Z,5.60
2017-12-04T08:42:52.490Z,3.53
2017-12-04T08:45:19.971Z,4.70
2017-12-04T08:47:47.429Z,5.63
2017-12-04T08:50:15.962Z,4.00
2017-12-04T08:52:43.440Z,3.90
2017-12-04T08:55:10.911Z,5.43
2017-12-04T08:57:38.370Z,5.27
2017-12-04T09:00:05.835Z,5.13
2017-12-04T09:02:33.299Z,4.80
2017-12-04T09:05:01.523Z,4.10
2017-12-04T09:07:29.010Z,4.90
2017-12-04T09:09:56.461Z,5.60
2017-12-04T09:12:23.915Z,6.23
2017-12-04T09:14:51.383Z,4.13
2017-12-04T09:17:18.859Z,5.10
2017-12-04T09:19:47.091Z,4.20
2017-12-04T09:22:14.591Z,4.40
2017-12-04T09:24:42.857Z,4.37
2017-12-04T09:27:10.315Z,3.87
2017-12-04T09:29:38.184Z,5.73
2017-12-04T09:32:06.425Z,3.80
2017-12-04T09:34:33.875Z,4.40
2017-12-04T09:37:01.395Z,5.33
2017-12-04T09:39:29.674Z,4.20
2017-12-04T09:41:57.363Z,3.83
2017-12-04T09:44:24.828Z,3.87
2017-12-04T09:46:52.322Z,5.67
2017-12-04T09:49:19.791Z,5.10
2017-12-04T09:51:48.387Z,5.13
2017-12-04T09:54:16.603Z,3.90
2017-12-04T09:56:44.447Z,5.20
2017-12-04T09:59:12.786Z,4.53
2017-12-04T10:01:41.024Z,3.83
2017-12-04T10:04:08.493Z,6.90
2017-12-04T10:06:35.962Z,3.50
2017-12-04T10:09:03.461Z,4.40
2017-12-04T10:11:30.921Z,4.20
2017-12-04T10:13:58.391Z,4.30
2017-12-04T10:16:25.872Z,2.93
2017-12-04T10:18:53.352Z,3.87
2017-12-04T10:21:20.808Z,4.17
2017-12-04T10:23:48.267Z,4.77
2017-12-04T10:26:15.735Z,3.57
2017-12-04T10:28:43.978Z,5.00
2017-12-04T10:31:11.444Z,4.60
2017-12-04T10:33:39.796Z,4.73
2017-12-04T10:36:07.259Z,4.70
2017-12-04T10:38:34.715Z,5.37
2017-12-04T10:41:02.191Z,3.73
2017-12-04T10:43:29.659Z,3.07
2017-12-04T10:45:57.146Z,3.90
2017-12-04T10:48:24.627Z,4.00
2017-12-04T10:50:52.080Z,3.00
2017-12-04T10:53:19.546Z,2.80
2017-12-04T10:55:47.011Z,4.00
2017-12-04T10:58:14.475Z,4.37
2017-12-04T11:00:41.980Z,3.57
2017-12-04T11:03:10.207Z,2.80
2017-12-04T11:05:37.675Z,4.07
2017-12-04T11:08:05.151Z,3.20
2017-12-04T11:10:33.391Z,3.50
2017-12-04T11:13:00.860Z,3.67
2017-12-04T11:15:28.326Z,4.20
2017-12-04T11:17:55.787Z,3.70
2017-12-04T11:20:23.247Z,3.97
2017-12-04T11:22:50.715Z,4.60
2017-12-04T11:25:18.979Z,4.30
2017-12-04T11:27:46.432Z,4.37
2017-12-04T11:30:13.888Z,3.90
2017-12-04T11:32:41.360Z,3.60
2017-12-04T11:35:09.597Z,3.70
2017-12-04T11:37:37.087Z,5.37
2017-12-04T11:40:04.551Z,3.37
2017-12-04T11:42:32.791Z,4.30
2017-12-04T11:45:00.262Z,3.80
2017-12-04T11:47:27.719Z,3.63
2017-12-04T11:49:55.191Z,4.00
2017-12-04T11:52:23.412Z,4.60
2017-12-04T11:54:50.882Z,4.90
2017-12-04T11:57:19.311Z,5.03
2017-12-04T11:59:46.776Z,5.80
2017-12-04T12:02:14.278Z,5.07
2017-12-04T12:04:41.755Z,5.30
2017-12-04T12:07:09.206Z,5.73
2017-12-04T12:09:36.687Z,6.80
2017-12-04T12:12:04.910Z,3.47
2017-12-04T12:14:32.383Z,3.60
2017-12-04T12:16:59.852Z,4.63
2017-12-04T12:19:27.319Z,5.00
2017-12-04T12:21:54.795Z,5.70
2017-12-04T12:24:23.023Z,4.47
2017-12-04T12:26:50.502Z,6.00
2017-12-04T12:29:18.503Z,5.10
2017-12-04T12:31:45.983Z,4.30
2017-12-04T12:34:13.514Z,5.13
2017-12-04T12:36:41.752Z,5.23
2017-12-04T12:39:09.228Z,5.00
2017-12-04T12:41:36.692Z,4.50
2017-12-04T12:44:04.912Z,4.10
2017-12-04T12:46:32.371Z,4.93
2017-12-04T12:48:59.835Z,4.17
2017-12-04T12:51:27.294Z,4.33
2017-12-04T12:53:54.771Z,5.57
2017-12-04T12:56:22.235Z,4.47
2017-12-04T12:58:49.708Z,5.80
2017-12-04T13:01:18.363Z,4.67
2017-12-04T13:03:45.839Z,4.83
2017-12-04T13:06:13.403Z,5.00
2017-12-04T13:08:41.624Z,4.13
2017-12-04T13:11:09.091Z,4.37
2017-12-04T13:13:36.544Z,5.93
2017-12-04T13:16:04.019Z,4.53
2017-12-04T13:18:31.491Z,3.90
2017-12-04T13:20:58.970Z,4.17
2017-12-04T13:23:27.200Z,4.10
2017-12-04T13:25:54.663Z,4.70
2017-12-04T13:28:22.115Z,4.30
2017-12-04T13:30:49.591Z,4.53
2017-12-04T13:33:29.186Z,6.77
2017-12-04T13:36:09.084Z,5.47
2017-12-04T13:38:36.619Z,4.00
2017-12-04T13:41:04.131Z,5.00
2017-12-04T13:43:31.575Z,4.40
2017-12-04T13:45:59.803Z,4.17
2017-12-04T13:48:27.293Z,4.83
2017-12-04T13:50:54.742Z,3.83
2017-12-04T13:53:22.208Z,5.40
2017-12-04T13:55:49.692Z,5.27
2017-12-04T13:58:18.827Z,5.93
2017-12-04T14:00:46.307Z,3.80
2017-12-04T14:03:14.589Z,4.13
2017-12-04T14:05:42.046Z,4.37
2017-12-04T14:08:09.532Z,5.60
2017-12-04T14:10:36.971Z,5.27
2017-12-04T14:13:05.208Z,5.00
2017-12-04T14:15:32.667Z,3.97
2017-12-04T14:18:00.146Z,4.10
2017-12-04T14:20:27.619Z,5.03
2017-12-04T14:22:55.846Z,6.53
2017-12-04T14:25:24.094Z,5.97
2017-12-04T14:27:51.535Z,4.70
2017-12-04T14:30:19.759Z,4.80
2017-12-04T14:32:48.062Z,5.23
2017-12-04T14:35:15.530Z,5.43
2017-12-04T14:37:43.762Z,4.17
2017-12-04T14:40:11.235Z,4.27
2017-12-04T14:42:38.691Z,5.97
2017-12-04T14:45:06.218Z,5.30
2017-12-04T14:47:34.444Z,4.93
2017-12-04T14:50:01.904Z,5.67
2017-12-04T14:52:30.149Z,5.67
2017-12-04T14:54:57.623Z,5.93
2017-12-04T14:57:25.087Z,5.70
2017-12-04T14:59:52.555Z,5.37
2017-12-04T15:02:20.811Z,4.83
2017-12-04T15:04:48.278Z,5.07
2017-12-04T15:07:16.510Z,4.17
2017-12-04T15:09:44.004Z,4.40
2017-12-04T15:12:11.467Z,5.53
2017-12-04T15:14:38.970Z,4.27
2017-12-04T15:17:06.489Z,5.23
2017-12-04T15:19:33.948Z,5.53
2017-12-04T15:22:02.207Z,5.27
2017-12-04T15:24:29.667Z,5.43
2017-12-04T15:26:57.524Z,5.20
2017-12-04T15:29:24.998Z,6.43
2017-12-04T15:31:52.454Z,6.97
2017-12-04T15:34:20.684Z,6.30
2017-12-04T15:36:48.151Z,4.90
2017-12-04T15:39:15.613Z,6.07
2017-12-04T15:41:43.077Z,5.33
2017-12-04T15:44:10.549Z,5.73
2017-12-04T15:46:38.007Z,4.70
2017-12-04T15:49:05.475Z,5.00
2017-12-04T15:51:33.735Z,5.07
2017-12-04T15:54:01.295Z,4.30
2017-12-04T15:56:28.766Z,5.63
2017-12-04T15:58:56.306Z,6.50
2017-12-04T16:01:25.279Z,6.10
2017-12-04T16:03:52.759Z,6.23
2017-12-04T16:06:20.315Z,6.60
2017-12-04T16:08:48.561Z,6.50
2017-12-04T16:11:16.051Z,6.50
2017-12-04T16:13:45.052Z,6.60
2017-12-04T16:16:12.499Z,6.17
2017-12-04T16:18:39.964Z,6.97
2017-12-04T16:21:08.205Z,5.63
2017-12-04T16:23:35.659Z,4.37
2017-12-04T16:26:03.123Z,4.60
2017-12-04T16:28:30.591Z,6.47
2017-12-04T16:30:58.544Z,4.67
2017-12-04T16:33:26.008Z,5.03
2017-12-04T16:35:53.474Z,4.03
2017-12-04T16:38:20.944Z,6.87
2017-12-04T16:40:48.412Z,5.73
2017-12-04T16:43:16.652Z,5.53
2017-12-04T16:45:44.124Z,5.67
2017-12-04T16:48:11.622Z,5.10
2017-12-04T16:50:39.611Z,5.83
2017-12-04T16:53:07.114Z,6.67
2017-12-04T16:55:34.588Z,6.47
2017-12-04T16:58:02.825Z,6.27
2017-12-04T17:00:30.289Z,5.93
2017-12-04T17:02:57.792Z,7.00
2017-12-04T17:05:25.256Z,7.40
2017-12-04T17:07:52.722Z,8.10
2017-12-04T17:10:20.196Z,7.73
2017-12-04T17:12:47.672Z,7.20
2017-12-04T17:15:15.191Z,5.70
2017-12-04T17:17:42.663Z,6.30
2017-12-04T17:20:10.127Z,6.60
2017-12-04T17:22:38.240Z,5.60
2017-12-04T17:25:05.757Z,6.87
2017-12-04T17:27:33.210Z,5.77
2017-12-04T17:30:00.679Z,6.93
2017-12-04T17:32:28.152Z,6.20
2017-12-04T17:34:55.610Z,5.87
2017-12-04T17:37:23.075Z,6.00
2017-12-04T17:39:51.314Z,6.80
2017-12-04T17:42:18.787Z,6.30
2017-12-04T17:44:46.255Z,6.23
2017-12-04T17:47:13.723Z,6.10
2017-12-04T17:49:42.579Z,5.97
2017-12-04T17:52:10.052Z,7.83
2017-12-04T17:54:37.533Z,6.70
2017-12-04T17:57:05.772Z,6.10
2017-12-04T17:59:34.078Z,7.83
2017-12-04T18:02:01.545Z,6.90
2017-12-04T18:04:29.484Z,7.23
2017-12-04T18:06:56.968Z,7.60
2017-12-04T18:09:25.188Z,7.67
2017-12-04T18:11:52.652Z,9.70
2017-12-04T18:14:20.138Z,7.73
2017-12-04T18:16:47.612Z,7.50
2017-12-04T18:19:15.827Z,7.80
2017-12-04T18:21:43.299Z,7.43
2017-12-04T18:24:10.760Z,6.47
2017-12-04T18:26:38.228Z,7.30
2017-12-04T18:29:05.696Z,5.50
2017-12-04T18:31:33.159Z,6.20
2017-12-04T18:34:00.625Z,6.67
2017-12-04T18:36:28.864Z,7.13
2017-12-04T18:38:56.318Z,6.00
2017-12-04T18:41:23.777Z,6.30
2017-12-04T18:43:51.248Z,6.97
2017-12-04T18:46:18.706Z,6.73
2017-12-04T18:48:46.183Z,6.87
2017-12-04T18:51:14.420Z,6.43
2017-12-04T18:53:41.906Z,6.37
2017-12-04T18:56:10.151Z,7.47
2017-12-04T18:58:37.664Z,6.20
2017-12-04T19:01:05.139Z,6.10
2017-12-04T19:03:32.614Z,6.67
2017-12-04T19:06:00.087Z,8.80
2017-12-04T19:08:28.075Z,7.50
2017-12-04T19:10:55.547Z,6.73
2017-12-04T19:13:23.784Z,8.97
2017-12-04T19:15:51.239Z,7.80
2017-12-04T19:18:19.599Z,7.80
2017-12-04T19:20:47.114Z,7.43
2017-12-04T19:23:14.589Z,9.50
2017-12-04T19:25:42.113Z,9.60
2017-12-04T19:28:10.471Z,8.13
2017-12-04T19:30:37.974Z,7.13
2017-12-04T19:33:06.208Z,9.17
2017-12-04T19:35:33.692Z,8.63
2017-12-04T19:38:01.923Z,8.37
2017-12-04T19:40:29.699Z,9.27
2017-12-04T19:42:57.173Z,9.10
2017-12-04T19:45:24.655Z,7.10
2017-12-04T19:47:52.884Z,9.37
2017-12-04T19:50:21.128Z,8.13
2017-12-04T19:52:48.615Z,8.23
2017-12-04T19:55:16.075Z,7.80
2017-12-04T19:57:43.555Z,7.43
2017-12-04T20:00:11.003Z,8.00
2017-12-04T20:02:38.479Z,7.83
2017-12-04T20:05:06.707Z,8.90
2017-12-04T20:07:35.083Z,7.77
2017-12-04T20:10:02.555Z,7.07
2017-12-04T20:12:30.653Z,8.97
2017-12-04T20:14:58.129Z,7.63
2017-12-04T20:17:26.363Z,8.70
2017-12-04T20:19:54.583Z,9.43
2017-12-04T20:22:22.257Z,10.17
2017-12-04T20:24:49.731Z,9.33
2017-12-04T20:27:17.535Z,7.70
2017-12-04T20:29:45.047Z,8.93
2017-12-04T20:32:12.530Z,8.07
2017-12-04T20:34:39.994Z,10.43
2017-12-04T20:37:07.460Z,8.20
2017-12-04T20:39:34.927Z,8.33
2017-12-04T20:42:02.396Z,9.30
2017-12-04T20:44:29.925Z,7.50
2017-12-04T20:46:57.395Z,8.23
2017-12-04T20:49:24.855Z,8.27
2017-12-04T20:51:53.083Z,9.17
2017-12-04T20:54:20.559Z,8.40
2017-12-04T20:56:48.037Z,7.20
2017-12-04T20:59:15.518Z,8.53
2017-12-04T21:01:44.012Z,8.73
2017-12-04T21:04:11.482Z,8.13
2017-12-04T21:06:39.523Z,8.90
2017-12-04T21:09:19.463Z,7.80
2017-12-04T21:11:49.503Z,8.80
2017-12-04T21:14:28.954Z,8.40
2017-12-04T21:17:08.327Z,9.30
2017-12-04T21:19:36.547Z,9.23
2017-12-04T21:22:04.005Z,9.03
2017-12-04T21:24:31.830Z,9.20
2017-12-04T21:26:59.959Z,8.53
2017-12-04T21:29:27.425Z,9.73
2017-12-04T21:31:54.890Z,9.50
2017-12-04T21:34:22.343Z,8.90
2017-12-04T21:36:49.799Z,8.87
2017-12-04T21:39:17.289Z,8.00
2017-12-04T21:41:44.746Z,9.20
2017-12-04T21:44:12.307Z,8.43
2017-12-04T21:46:39.774Z,9.03
2017-12-04T21:49:08.479Z,9.27
2017-12-04T21:51:35.946Z,9.43
2017-12-04T21:54:04.238Z,8.60
2017-12-04T21:56:31.703Z,8.40
2017-12-04T21:58:59.163Z,9.67
2017-12-04T22:01:26.630Z,8.23
2017-12-04T22:03:54.097Z,8.47
2017-12-04T22:06:21.579Z,8.03
2017-12-04T22:08:50.583Z,9.07
2017-12-04T22:11:18.819Z,8.10
2017-12-04T22:13:46.291Z,8.63
2017-12-04T22:16:13.763Z,7.53
2017-12-04T22:18:42.033Z,8.70
2017-12-04T22:21:10.316Z,8.00
2017-12-04T22:23:38.676Z,9.40
2017-12-04T22:26:06.226Z,8.27
2017-12-04T22:28:33.702Z,8.40
2017-12-04T22:31:01.943Z,7.27
2017-12-04T22:33:29.398Z,8.27
2017-12-04T22:35:56.876Z,9.33
2017-12-04T22:38:24.331Z,6.97
2017-12-04T22:40:51.787Z,6.73
2017-12-04T22:43:19.256Z,7.83
2017-12-04T22:45:46.712Z,8.20
2017-12-04T22:48:14.162Z,8.50
2017-12-04T22:50:41.647Z,7.33
2017-12-04T22:53:10.067Z,8.13
2017-12-04T22:55:38.287Z,8.03
2017-12-04T22:58:05.757Z,6.90
2017-12-04T23:00:33.991Z,7.20
2017-12-04T23:03:01.447Z,8.23
2017-12-04T23:05:29.705Z,8.17
2017-12-04T23:07:57.183Z,6.80
2017-12-04T23:10:24.631Z,9.23
2017-12-04T23:12:52.091Z,7.63
2017-12-04T23:15:19.560Z,8.53
2017-12-04T23:17:48.955Z,8.77
2017-12-04T23:20:16.515Z,6.90
2017-12-04T23:22:43.996Z,7.00
2017-12-04T23:25:12.308Z,7.47
2017-12-04T23:27:39.754Z,6.00
2017-12-04T23:30:07.241Z,6.87
2017-12-04T23:32:34.688Z,7.37
2017-12-04T23:35:02.147Z,7.40
2017-12-04T23:37:29.876Z,6.90
2017-12-04T23:39:57.349Z,6.87
2017-12-04T23:42:25.075Z,6.20
2017-12-04T23:44:52.547Z,7.23
2017-12-04T23:47:20.777Z,6.40
2017-12-04T23:49:48.230Z,8.53
2017-12-04T23:52:15.708Z,6.53
2017-12-04T23:54:43.172Z,7.17
2017-12-04T23:57:10.640Z,7.70
2017-12-04T23:59:38.874Z,7.33
